createdAt,value
2023-05-01T00:00:04.125Z,6.2
2023-05-01T00:02:03.861Z,6.1
2023-05-01T00:04:05.379Z,6.1
2023-05-01T00:06:06.657Z,6.1
2023-05-01T00:08:08.019Z,6.2
2023-05-01T00:10:12.726Z,6.2
2023-05-01T00:12:14.198Z,6.2
2023-05-01T00:18:18.324Z,6
2023-05-01T00:20:19.696Z,5.9
2023-05-01T00:22:21.080Z,5.8
2023-05-01T00:28:28.683Z,6
2023-05-01T00:30:51.868Z,5.8
2023-05-01T00:32:53.360Z,5.7
2023-05-01T00:34:54.664Z,5.8
2023-05-01T00:41:02.151Z,5.7
2023-05-01T00:43:03.549Z,5.7
2023-05-01T00:45:04.971Z,5.7
2023-05-01T00:47:06.348Z,5.7
2023-05-01T00:49:07.714Z,5.7
2023-05-01T00:51:12.410Z,5.8
2023-05-01T00:53:13.791Z,5.8
2023-05-01T00:59:18.084Z,5.7
2023-05-01T01:01:19.520Z,5.6
2023-05-01T01:03:20.954Z,5.6
2023-05-01T01:05:25.651Z,5.5
2023-05-01T01:07:27.018Z,5.4
2023-05-01T01:11:29.799Z,5.5
2023-05-01T01:13:31.210Z,5.4
2023-05-01T01:15:32.593Z,5.4
2023-05-01T01:17:34.070Z,5.4
2023-05-01T01:19:38.738Z,5.3
2023-05-01T01:21:40.216Z,5.3
2023-05-01T01:23:41.593Z,5.2
2023-05-01T01:24:43.933Z,5.2
2023-05-01T01:26:45.356Z,5.2
2023-05-01T01:28:46.726Z,5.2
2023-05-01T01:30:48.127Z,5.3
2023-05-01T01:32:52.910Z,5.3
2023-05-01T01:36:55.604Z,5.3
2023-05-01T01:38:56.977Z,5.3
2023-05-01T01:40:58.357Z,5.3
2023-05-01T01:47:05.863Z,5.5
2023-05-01T01:49:07.228Z,5.6
2023-05-01T01:51:08.604Z,5.7
2023-05-01T01:53:10.020Z,5.7
2023-05-01T01:57:13.021Z,5.6
2023-05-01T02:03:20.525Z,5.5
2023-05-01T02:05:21.847Z,5.4
2023-05-01T02:07:23.223Z,5.4
2023-05-01T02:13:27.405Z,5.4
2023-05-01T02:15:32.082Z,5.2
2023-05-01T02:17:33.526Z,5.1
2023-05-01T02:20:38.800Z,5.1
2023-05-01T02:22:40.258Z,5
2023-05-01T02:24:41.635Z,5
2023-05-01T02:26:43.071Z,4.9
2023-05-01T02:28:47.693Z,4.8
2023-05-01T02:30:49.080Z,4.8
2023-05-01T02:32:50.529Z,5
2023-05-01T02:34:51.904Z,5.1
2023-05-01T02:38:54.624Z,5.1
2023-05-01T02:40:56.018Z,5
2023-05-01T02:43:00.750Z,4.9
2023-05-01T02:45:02.205Z,4.9
2023-05-01T02:47:03.635Z,4.9
2023-05-01T02:49:04.982Z,4.9
2023-05-01T02:51:06.351Z,5
2023-05-01T02:53:07.750Z,5.2
2023-05-01T02:55:09.149Z,5.1
2023-05-01T02:57:13.844Z,5.2
2023-05-01T03:01:16.789Z,5.2
2023-05-01T03:03:18.162Z,5.2
2023-05-01T03:05:19.481Z,5.2
2023-05-01T03:07:20.881Z,5.3
2023-05-01T03:15:29.742Z,5.2
2023-05-01T03:16:32.125Z,5.3
2023-05-01T03:18:33.495Z,5.3
2023-05-01T03:20:34.885Z,5.3
2023-05-01T03:24:41.071Z,5.2
2023-05-01T03:26:42.345Z,5.2
2023-05-01T03:28:43.784Z,5.2
2023-05-01T03:30:45.239Z,5.2
2023-05-01T03:32:46.724Z,5.1
2023-05-01T03:34:48.081Z,5.2
2023-05-01T03:36:49.421Z,5.3
2023-05-01T03:38:54.094Z,5.4
2023-05-01T03:40:55.481Z,5.4
2023-05-01T03:42:56.860Z,5.3
2023-05-01T03:44:58.305Z,5.3
2023-05-01T03:46:59.628Z,5.4
2023-05-01T03:49:01.014Z,5.5
2023-05-01T03:51:02.435Z,5.5
2023-05-01T03:53:07.139Z,5.6
2023-05-01T03:55:08.532Z,5.5
2023-05-01T03:57:09.921Z,5.7
2023-05-01T03:59:11.299Z,5.7
2023-05-01T04:03:14.230Z,5.9
2023-05-01T04:07:20.182Z,5.9
2023-05-01T04:11:22.993Z,6
2023-05-01T04:17:54.852Z,6.2
2023-05-01T04:22:00.888Z,6.2
2023-05-01T04:24:02.283Z,6.3
2023-05-01T04:26:03.850Z,6.4
2023-05-01T04:28:05.076Z,6.4
2023-05-01T04:30:06.486Z,6.5
2023-05-01T04:32:07.947Z,6.5
2023-05-01T04:36:14.104Z,6.6
2023-05-01T04:40:16.919Z,6.9
2023-05-01T04:42:18.318Z,6.9
2023-05-01T04:48:25.861Z,7.2
2023-05-01T04:50:27.235Z,7.2
2023-05-01T04:52:28.672Z,7
2023-05-01T04:56:31.577Z,7.1
2023-05-01T05:02:39.221Z,7.2
2023-05-01T05:06:42.029Z,7.3
2023-05-01T05:07:44.282Z,7.4
2023-05-01T05:09:45.685Z,7.4
2023-05-01T05:19:56.579Z,7.9
2023-05-01T05:28:02.097Z,8
2023-05-01T05:30:06.802Z,8.1
2023-05-01T05:32:08.300Z,8.1
2023-05-01T05:34:09.655Z,8.1
2023-05-01T05:36:11.074Z,8.2
2023-05-01T05:44:20.070Z,8.6
2023-05-01T05:46:21.500Z,8.7
2023-05-01T05:50:24.346Z,8.8
2023-05-01T05:52:25.755Z,8.9
2023-05-01T05:54:27.154Z,9
2023-05-01T05:56:28.585Z,9.1
2023-05-01T05:58:33.323Z,9
2023-05-01T06:02:36.341Z,9
2023-05-01T06:03:38.831Z,9
2023-05-01T06:19:53.234Z,9.3
2023-05-01T06:21:54.670Z,9.3
2023-05-01T06:23:56.090Z,9.4
2023-05-01T06:30:03.687Z,9.7
2023-05-01T06:34:06.516Z,9.7
2023-05-01T06:38:09.393Z,10.1
2023-05-01T06:52:22.658Z,10.5
2023-05-01T07:19:50.380Z,10.9
2023-05-01T07:30:00.794Z,11.5
2023-05-01T07:44:14.094Z,12
2023-05-01T07:46:15.527Z,12.3
2023-05-01T07:48:16.990Z,12.3
2023-05-01T07:50:21.690Z,12.3
2023-05-01T07:52:23.113Z,12.4
2023-05-01T07:56:51.324Z,12.7
2023-05-01T08:00:54.206Z,12.6
2023-05-01T08:02:58.947Z,12.8
2023-05-01T08:05:00.475Z,12.9
2023-05-01T08:09:03.664Z,13.6
2023-05-01T08:11:05.063Z,13.4
2023-05-01T08:13:06.514Z,13.4
2023-05-01T08:15:07.918Z,13.3
2023-05-01T08:17:12.655Z,13.4
2023-05-01T08:19:14.072Z,13.6
2023-05-01T08:21:15.475Z,13.9
2023-05-01T08:23:16.921Z,13.7
2023-05-01T08:25:18.364Z,14.1
2023-05-01T08:27:19.774Z,14.8
2023-05-01T08:29:21.189Z,14.8
2023-05-01T08:31:25.984Z,15.2
2023-05-01T08:33:27.363Z,15.2
2023-05-01T08:37:30.200Z,16.1
2023-05-01T08:41:33.182Z,18.8
2023-05-01T08:43:34.448Z,19.5
2023-05-01T08:45:39.232Z,19.9
2023-05-01T08:47:40.666Z,19.8
2023-05-01T08:49:42.044Z,18.8
2023-05-01T08:50:44.426Z,17.6
2023-05-01T08:52:45.828Z,17
2023-05-01T08:56:48.670Z,17.1
2023-05-01T09:00:54.745Z,18.6
2023-05-01T09:04:57.499Z,19.6
2023-05-01T09:06:58.887Z,18.6
2023-05-01T09:17:08.895Z,21.3
2023-05-01T09:21:11.689Z,19.1
2023-05-01T09:23:13.084Z,19.8
2023-05-01T09:25:14.432Z,20
2023-05-01T09:27:19.018Z,18.5
2023-05-01T09:29:20.331Z,18.2
2023-05-01T09:31:21.705Z,19.2
2023-05-01T09:33:23.022Z,18.7
2023-05-01T09:35:24.259Z,18.2
2023-05-01T09:37:25.621Z,18.9
2023-05-01T09:46:36.309Z,19.6
2023-05-01T09:48:37.526Z,19.8
2023-05-01T09:50:38.753Z,18.3
2023-05-01T09:54:44.769Z,17.5
2023-05-01T09:56:46.048Z,17.8
2023-05-01T09:58:47.402Z,18.6
2023-05-01T10:04:51.182Z,19.1
2023-05-01T10:10:58.251Z,17.5
2023-05-01T10:12:59.526Z,18
2023-05-01T10:15:07.840Z,19.4
2023-05-01T10:17:02.216Z,18.4
2023-05-01T10:21:04.841Z,19.2
2023-05-01T10:23:09.421Z,18.2
2023-05-01T10:25:10.654Z,18.2
2023-05-01T10:27:11.925Z,18.5
2023-05-01T10:29:13.276Z,17.9
2023-05-01T10:31:14.549Z,17.6
2023-05-01T10:33:15.889Z,17.8
2023-05-01T10:35:17.152Z,17.6
2023-05-01T10:37:21.626Z,17.5
2023-05-01T10:39:22.858Z,17.5
2023-05-01T10:41:24.135Z,17.8
2023-05-01T10:46:28.964Z,17.8
2023-05-01T10:48:30.178Z,17.5
2023-05-01T10:54:37.300Z,17.1
2023-05-01T10:56:38.677Z,17
2023-05-01T10:58:39.963Z,17
2023-05-01T11:02:42.692Z,17.2
2023-05-01T11:04:47.190Z,17.2
2023-05-01T11:08:49.717Z,17.6
2023-05-01T11:10:51.006Z,17.9
2023-05-01T11:12:52.364Z,17.7
2023-05-01T11:14:53.927Z,17.8
2023-05-01T11:18:59.604Z,17.6
2023-05-01T11:21:00.980Z,17.6
2023-05-01T11:23:02.318Z,17.7
2023-05-01T11:25:03.627Z,17.6
2023-05-01T11:27:05.081Z,17.6
2023-05-01T11:29:06.349Z,17.7
2023-05-01T11:31:07.625Z,17.9
2023-05-01T11:33:12.233Z,17.9
2023-05-01T11:35:13.480Z,17.8
2023-05-01T11:37:14.750Z,17.8
2023-05-01T12:00:03.249Z,18
2023-05-01T12:02:04.601Z,18
2023-05-01T12:04:06.023Z,18
2023-05-01T12:06:07.278Z,18.5
2023-05-01T12:08:08.517Z,18.7
2023-05-01T12:10:09.784Z,18.7
2023-05-01T12:14:15.508Z,19.4
2023-05-01T12:18:18.032Z,18.7
2023-05-01T12:20:19.243Z,18.6
2023-05-01T12:22:20.490Z,18.5
2023-05-01T12:32:30.042Z,18.8
2023-05-01T12:33:32.335Z,18.5
2023-05-01T12:35:33.565Z,18.6
2023-05-01T12:37:34.846Z,18.9
2023-05-01T12:39:36.101Z,18.9
2023-05-01T12:43:44.246Z,19.2
2023-05-01T12:45:43.144Z,18.9
2023-05-01T12:49:45.672Z,19.1
2023-05-01T12:51:46.935Z,19
2023-05-01T12:53:48.173Z,19.7
2023-05-01T12:55:52.651Z,19.7
2023-05-01T12:59:55.274Z,19.3
2023-05-01T13:05:59.041Z,19.9
2023-05-01T13:10:04.709Z,19.1
2023-05-01T13:12:05.953Z,19.1
2023-05-01T13:16:08.519Z,20
2023-05-01T13:18:09.867Z,19.4
2023-05-01T13:22:12.289Z,19.4
2023-05-01T13:24:16.801Z,20.4
2023-05-01T13:26:18.013Z,20.6
2023-05-01T13:28:19.397Z,21
2023-05-01T13:29:21.524Z,22
2023-05-01T13:31:22.766Z,22.4
2023-05-01T13:33:24.237Z,22
2023-05-01T13:37:29.686Z,22.2
2023-05-01T13:39:30.906Z,22.5
2023-05-01T13:43:33.354Z,22.7
2023-05-01T13:45:34.653Z,23
2023-05-01T13:49:37.003Z,20.4
2023-05-01T13:53:42.840Z,20.2
2023-05-01T13:57:45.163Z,19.7
2023-05-01T13:59:47.965Z,19.7
2023-05-01T14:01:49.218Z,19.7
2023-05-01T14:05:54.761Z,18.6
2023-05-01T14:07:55.998Z,18.4
2023-05-01T14:09:57.236Z,18.5
2023-05-01T14:11:58.452Z,18.1
2023-05-01T14:16:01.044Z,17.5
2023-05-01T14:20:06.795Z,17.6
2023-05-01T14:22:08.033Z,17.7
2023-05-01T14:25:11.522Z,17.5
2023-05-01T14:27:12.755Z,17.4
2023-05-01T14:29:14.003Z,17.1
2023-05-01T14:31:15.397Z,17
2023-05-01T14:33:19.896Z,17.2
2023-05-01T14:35:21.212Z,17.1
2023-05-01T14:37:22.528Z,16.9
2023-05-01T14:39:23.783Z,16.4
2023-05-01T14:41:25.100Z,16.3
2023-05-01T14:43:26.449Z,16.4
2023-05-01T14:45:27.838Z,16.6
2023-05-01T14:47:32.382Z,16.8
2023-05-01T14:49:33.666Z,16.7
2023-05-01T14:51:34.990Z,16.7
2023-05-01T14:53:36.381Z,16.7
2023-05-01T14:55:37.684Z,16.5
2023-05-01T14:57:38.949Z,16.5
2023-05-01T15:01:45.020Z,16.4
2023-05-01T15:03:46.586Z,16.5
2023-05-01T15:05:47.655Z,16.5
2023-05-01T15:07:48.976Z,16.4
2023-05-01T15:15:57.712Z,16.2
2023-05-01T15:17:59.188Z,16.2
2023-05-01T15:20:00.446Z,16.4
2023-05-01T15:22:28.891Z,16.7
2023-05-01T15:24:30.177Z,16.8
2023-05-01T15:26:31.496Z,17
2023-05-01T15:30:37.537Z,18.2
2023-05-01T15:34:40.200Z,18.8
2023-05-01T15:36:41.510Z,18.6
2023-05-01T15:38:42.792Z,18.3
2023-05-01T15:40:44.090Z,17.8
2023-05-01T15:42:48.722Z,17.1
2023-05-01T15:46:51.500Z,17.3
2023-05-01T15:54:56.638Z,18.7
2023-05-01T15:57:01.165Z,19
2023-05-01T15:59:02.583Z,18.4
2023-05-01T16:01:03.871Z,17.9
2023-05-01T16:03:05.179Z,18.6
2023-05-01T16:05:06.515Z,18.4
2023-05-01T16:11:13.815Z,21.1
2023-05-01T16:13:15.069Z,20.7
2023-05-01T16:15:16.379Z,18.9
2023-05-01T16:16:18.647Z,19.5
2023-05-01T16:18:20.021Z,20.6
2023-05-01T16:20:21.383Z,19.1
2023-05-01T16:22:22.647Z,19.1
2023-05-01T16:24:27.263Z,19.4
2023-05-01T16:26:28.546Z,19.5
2023-05-01T16:28:29.798Z,20
2023-05-01T16:30:31.137Z,20.1
2023-05-01T16:32:32.481Z,19.7
2023-05-01T16:34:33.769Z,18.9
2023-05-01T16:36:35.011Z,18.4
2023-05-01T16:38:39.519Z,19.6
2023-05-01T16:40:40.791Z,19.9
2023-05-01T16:42:42.042Z,18.8
2023-05-01T16:44:43.390Z,17.7
2023-05-01T16:46:44.794Z,18.2
2023-05-01T16:48:46.029Z,17.6
2023-05-01T16:50:47.410Z,17.4
2023-05-01T16:52:52.002Z,17.2
2023-05-01T16:54:53.272Z,17.5
2023-05-01T16:56:54.573Z,16.9
2023-05-01T16:58:55.818Z,17.4
2023-05-01T17:00:57.132Z,17.5
2023-05-01T17:02:58.451Z,16.7
2023-05-01T17:04:59.696Z,16.3
2023-05-01T17:07:04.353Z,17
2023-05-01T17:09:05.720Z,17.2
2023-05-01T17:11:07.110Z,16.8
2023-05-01T17:12:09.406Z,17.3
2023-05-01T17:18:13.454Z,16
2023-05-01T17:20:18.153Z,16.3
2023-05-01T17:22:19.481Z,16.2
2023-05-01T17:30:24.946Z,15.5
2023-05-01T17:34:30.906Z,15
2023-05-01T17:42:36.534Z,14.5
2023-05-01T17:44:37.956Z,14.4
2023-05-01T17:48:44.096Z,14
2023-05-01T17:52:46.938Z,13.9
2023-05-01T17:54:48.374Z,14
2023-05-01T17:56:49.799Z,14
2023-05-01T17:58:51.239Z,13.9
2023-05-01T18:00:52.704Z,14
2023-05-01T18:02:57.529Z,13.9
2023-05-01T18:04:59.048Z,13.9
2023-05-01T18:12:05.473Z,13.9
2023-05-01T18:16:11.638Z,13.9
2023-05-01T18:18:13.139Z,13.9
2023-05-01T18:20:14.521Z,13.9
2023-05-01T18:22:15.963Z,13.9
2023-05-01T18:24:17.497Z,13.9
2023-05-01T18:26:18.814Z,13.9
2023-05-01T18:28:20.245Z,13.9
2023-05-01T18:30:24.976Z,13.8
2023-05-01T18:32:39.341Z,13.8
2023-05-01T18:34:27.880Z,13.7
2023-05-01T18:36:29.286Z,13.7
2023-05-01T18:38:30.720Z,13.7
2023-05-01T18:40:32.183Z,13.6
2023-05-01T18:48:41.213Z,13.4
2023-05-01T18:50:42.923Z,13.3
2023-05-01T18:52:44.093Z,13.2
2023-05-01T18:54:45.514Z,13.2
2023-05-01T18:58:51.689Z,13.1
2023-05-01T19:00:53.159Z,13.1
2023-05-01T19:02:54.645Z,13.1
2023-05-01T19:05:17.414Z,13
2023-05-01T19:07:18.807Z,13
2023-05-01T19:09:20.225Z,13
2023-05-01T19:11:24.949Z,13
2023-05-01T19:13:26.394Z,13
2023-05-01T19:15:27.834Z,12.9
2023-05-01T19:17:29.335Z,12.9
2023-05-01T19:19:30.707Z,12.9
2023-05-01T19:21:32.167Z,12.9
2023-05-01T19:23:33.568Z,12.9
2023-05-01T19:25:38.295Z,12.7
2023-05-01T19:27:39.714Z,12.7
2023-05-01T19:29:41.209Z,12.6
2023-05-01T19:31:42.648Z,12.5
2023-05-01T19:33:44.057Z,12.5
2023-05-01T19:35:45.454Z,12.4
2023-05-01T19:37:48.781Z,12.3
2023-05-01T19:39:51.650Z,12.2
2023-05-01T19:41:53.086Z,12.1
2023-05-01T19:43:54.540Z,12
2023-05-01T19:45:56.000Z,12
2023-05-01T19:47:57.429Z,11.9
2023-05-01T19:50:00.784Z,11.9
2023-05-01T19:52:01.845Z,12
2023-05-01T19:54:06.574Z,11.8
2023-05-01T19:56:07.987Z,11.9
2023-05-01T19:58:09.424Z,11.7
2023-05-01T20:03:14.755Z,11.5
2023-05-01T20:13:25.191Z,11.2
2023-05-01T20:15:26.638Z,11.2
2023-05-01T20:17:28.090Z,11.2
2023-05-01T20:19:29.503Z,11.1
2023-05-01T20:21:34.270Z,11
2023-05-01T20:25:37.171Z,10.8
2023-05-01T20:27:38.577Z,10.8
2023-05-01T20:29:40.006Z,10.8
2023-05-01T20:31:41.485Z,10.7
2023-05-01T20:33:42.915Z,10.7
2023-05-01T20:35:47.677Z,10.6
2023-05-01T20:37:49.139Z,10.5
2023-05-01T20:39:50.529Z,10.5
2023-05-01T20:41:51.990Z,10.6
2023-05-01T20:45:54.878Z,10.4
2023-05-01T20:50:01.385Z,10.3
2023-05-01T20:54:03.941Z,10.3
2023-05-01T20:55:06.275Z,10.2
2023-05-01T20:57:07.744Z,10.2
2023-05-01T20:59:09.190Z,10.1
2023-05-01T21:01:10.664Z,10.1
2023-05-01T21:05:16.728Z,10.4
2023-05-01T21:09:19.637Z,10.5
2023-05-01T21:11:21.062Z,10.6
2023-05-01T21:15:23.942Z,10.9
2023-05-01T21:17:28.779Z,10.8
2023-05-01T21:21:31.536Z,10.6
2023-05-01T21:27:35.881Z,10.2
2023-05-01T21:29:37.332Z,10.4
2023-05-01T21:35:44.955Z,10.4
2023-05-01T21:37:46.378Z,10.4
2023-05-01T21:39:47.802Z,10.5
2023-05-01T21:41:49.249Z,10.5
2023-05-01T21:43:50.666Z,10.6
2023-05-01T21:45:55.418Z,10.7
2023-05-01T21:47:56.875Z,10.7
2023-05-01T21:49:58.604Z,10.7
2023-05-01T21:51:00.685Z,10.7
2023-05-01T21:53:02.105Z,10.7
2023-05-01T21:57:05.005Z,10.8
2023-05-01T22:01:11.207Z,10.7
2023-05-01T22:11:18.362Z,10.6
2023-05-01T22:13:23.087Z,10.5
2023-05-01T22:17:26.034Z,10.4
2023-05-01T22:50:21.033Z,9.7
2023-05-01T22:52:22.484Z,9.7
2023-05-01T23:02:33.058Z,9.8
2023-05-01T23:04:34.404Z,9.9
2023-05-01T23:10:42.049Z,9.7
2023-05-01T23:12:43.472Z,9.8
2023-05-01T23:18:47.793Z,9.7
2023-05-01T23:41:10.230Z,10.2
2023-05-01T23:42:12.544Z,10.3
2023-05-01T23:46:15.493Z,10.3
2023-05-01T23:48:16.886Z,10.3
2023-05-01T23:50:21.599Z,10.3
2023-05-01T23:52:23.054Z,10.4
2023-05-01T23:54:24.491Z,10.4
2023-05-01T23:58:27.376Z,10.4
